createdAt,value
2022-12-31T00:01:16.713Z,48.38
2022-12-31T00:03:46.112Z,39.47
2022-12-31T00:06:17.058Z,48.42
2022-12-31T00:08:46.035Z,50.20
2022-12-31T00:11:15.004Z,46.95
2022-12-31T00:13:46.521Z,51.28
2022-12-31T00:16:16.748Z,56.75
2022-12-31T00:18:45.947Z,55.25
2022-12-31T00:21:15.236Z,55.88
2022-12-31T00:23:44.002Z,50.78
2022-12-31T00:26:14.943Z,56.47
2022-12-31T00:28:44.014Z,48.97
2022-12-31T00:31:15.497Z,51.53
2022-12-31T00:33:44.112Z,58.67
2022-12-31T00:36:14.819Z,53.65
2022-12-31T00:38:45.324Z,54.90
2022-12-31T00:41:14.619Z,56.10
2022-12-31T00:43:43.177Z,56.72
2022-12-31T00:46:14.015Z,54.35
2022-12-31T00:48:42.792Z,55.33
2022-12-31T00:51:14.343Z,57.53
2022-12-31T00:53:42.984Z,56.95
2022-12-31T00:56:14.329Z,53.58
2022-12-31T00:58:43.272Z,50.60
2022-12-31T01:01:14.655Z,52.20
2022-12-31T01:03:43.496Z,56.30
2022-12-31T01:06:12.064Z,50.85
2022-12-31T01:08:40.655Z,51.90
2022-12-31T01:11:22.608Z,53.00
2022-12-31T01:13:54.236Z,55.53
2022-12-31T01:16:26.443Z,49.38
2022-12-31T01:18:55.428Z,47.50
2022-12-31T01:21:24.380Z,47.60
2022-12-31T01:23:52.789Z,49.15
2022-12-31T01:26:21.386Z,50.63
2022-12-31T01:28:49.740Z,47.83
2022-12-31T01:31:21.106Z,48.10
2022-12-31T01:33:51.446Z,51.42
2022-12-31T01:36:25.514Z,41.22
2022-12-31T01:38:55.652Z,53.72
2022-12-31T01:41:26.198Z,43.72
2022-12-31T01:43:57.503Z,47.15
2022-12-31T01:46:30.782Z,43.38
2022-12-31T01:49:03.979Z,51.85
2022-12-31T01:51:36.099Z,44.80
2022-12-31T01:54:07.816Z,47.97
2022-12-31T01:56:37.271Z,48.72
2022-12-31T01:59:09.290Z,42.55
2022-12-31T02:01:39.320Z,39.92
2022-12-31T02:04:13.251Z,39.35
2022-12-31T02:06:45.297Z,42.13
2022-12-31T02:09:14.048Z,46.50
2022-12-31T02:11:42.325Z,41.67
2022-12-31T02:14:13.714Z,43.88
2022-12-31T02:16:51.396Z,52.58
2022-12-31T02:19:55.379Z,39.67
2022-12-31T02:22:41.300Z,42.38
2022-12-31T02:25:33.549Z,43.25
2022-12-31T02:28:16.145Z,39.22
2022-12-31T02:30:51.611Z,39.38
2022-12-31T02:33:24.409Z,37.15
2022-12-31T02:35:57.728Z,42.10
2022-12-31T02:38:30.101Z,40.45
2022-12-31T02:40:58.652Z,44.20
2022-12-31T02:43:28.157Z,47.63
2022-12-31T02:46:07.635Z,43.13
2022-12-31T02:48:46.984Z,37.42
2022-12-31T02:51:29.879Z,40.13
2022-12-31T02:54:26.829Z,42.30
2022-12-31T02:57:06.652Z,39.85
2022-12-31T02:59:57.587Z,35.50
2022-12-31T03:02:31.521Z,43.15
2022-12-31T03:05:02.537Z,33.20
2022-12-31T03:07:33.357Z,37.47
2022-12-31T03:10:05.081Z,34.80
2022-12-31T03:12:46.965Z,38.70
2022-12-31T03:15:23.628Z,33.80
2022-12-31T03:17:56.329Z,37.58
2022-12-31T03:20:46.059Z,37.67
2022-12-31T03:23:19.109Z,34.20
2022-12-31T03:25:47.168Z,32.80
2022-12-31T03:28:17.186Z,33.22
2022-12-31T03:30:48.021Z,35.90
2022-12-31T03:33:18.595Z,32.20
2022-12-31T03:35:48.706Z,31.75
2022-12-31T03:38:18.476Z,30.88
2022-12-31T03:40:50.710Z,37.03
2022-12-31T03:43:19.779Z,33.35
2022-12-31T03:45:50.245Z,26.75
2022-12-31T03:48:21.721Z,28.33
2022-12-31T03:50:50.444Z,26.17
2022-12-31T03:53:19.106Z,32.65
2022-12-31T03:55:51.172Z,27.77
2022-12-31T03:58:19.469Z,21.10
2022-12-31T04:00:47.849Z,25.63
2022-12-31T04:03:16.241Z,24.02
2022-12-31T04:05:46.031Z,28.65
2022-12-31T04:08:14.350Z,25.73
2022-12-31T04:10:45.460Z,22.45
2022-12-31T04:13:13.763Z,25.98
2022-12-31T04:15:42.066Z,23.67
2022-12-31T04:18:10.399Z,29.02
2022-12-31T04:20:38.689Z,27.52
2022-12-31T04:23:08.435Z,24.63
2022-12-31T04:25:36.708Z,30.08
2022-12-31T04:28:05.176Z,22.23
2022-12-31T04:30:33.616Z,25.05
2022-12-31T04:33:01.909Z,27.60
2022-12-31T04:35:30.300Z,28.00
2022-12-31T04:37:58.494Z,27.80
2022-12-31T04:40:28.689Z,25.58
2022-12-31T04:42:56.987Z,23.23
2022-12-31T04:45:25.341Z,24.38
2022-12-31T04:47:55.621Z,29.77
2022-12-31T04:50:23.870Z,28.33
2022-12-31T04:52:52.609Z,26.10
2022-12-31T04:55:21.072Z,31.35
2022-12-31T04:57:50.969Z,25.60
2022-12-31T05:00:19.696Z,26.88
2022-12-31T05:02:48.162Z,25.85
2022-12-31T05:05:16.769Z,32.10
2022-12-31T05:07:45.040Z,26.67
2022-12-31T05:10:14.902Z,28.42
2022-12-31T05:12:43.170Z,25.55
2022-12-31T05:15:13.015Z,29.50
2022-12-31T05:17:41.408Z,28.15
2022-12-31T05:20:10.547Z,27.75
2022-12-31T05:22:38.840Z,27.48
2022-12-31T05:25:08.171Z,25.92
2022-12-31T05:27:37.956Z,30.13
2022-12-31T05:30:07.191Z,29.17
2022-12-31T05:32:37.132Z,26.42
2022-12-31T05:35:06.147Z,23.48
2022-12-31T05:37:34.796Z,27.50
2022-12-31T05:40:03.367Z,26.75
2022-12-31T05:42:31.757Z,27.63
2022-12-31T05:45:01.310Z,32.33
2022-12-31T05:47:30.693Z,32.53
2022-12-31T05:50:00.541Z,31.65
2022-12-31T05:52:28.870Z,23.55
2022-12-31T05:54:57.161Z,26.65
2022-12-31T05:57:25.473Z,31.05
2022-12-31T05:59:54.172Z,25.80
2022-12-31T06:02:23.061Z,25.77
2022-12-31T06:04:51.955Z,24.27
2022-12-31T06:07:21.686Z,25.02
2022-12-31T06:09:50.185Z,26.08
2022-12-31T06:12:18.488Z,25.80
2022-12-31T06:14:46.947Z,27.30
2022-12-31T06:17:15.245Z,23.67
2022-12-31T06:19:43.595Z,21.25
2022-12-31T06:22:11.985Z,26.85
2022-12-31T06:24:42.377Z,24.75
2022-12-31T06:27:10.585Z,22.20
2022-12-31T06:29:38.995Z,21.95
2022-12-31T06:32:07.736Z,25.40
2022-12-31T06:34:36.193Z,26.38
2022-12-31T06:37:04.678Z,20.83
2022-12-31T06:39:32.987Z,27.27
2022-12-31T06:42:02.834Z,23.48
2022-12-31T06:44:31.438Z,20.45
2022-12-31T06:46:59.771Z,24.15
2022-12-31T06:49:30.091Z,25.42
2022-12-31T06:51:59.006Z,24.73
2022-12-31T06:54:27.348Z,24.42
2022-12-31T06:56:56.069Z,25.10
2022-12-31T06:59:28.623Z,22.20
2022-12-31T07:02:20.230Z,20.73
2022-12-31T07:05:10.181Z,21.23
2022-12-31T07:07:50.217Z,24.52
2022-12-31T07:10:30.031Z,24.90
2022-12-31T07:13:26.206Z,27.95
2022-12-31T07:16:10.753Z,21.83
2022-12-31T07:18:47.518Z,25.20
2022-12-31T07:21:19.707Z,23.20
2022-12-31T07:23:48.524Z,21.35
2022-12-31T07:26:24.235Z,21.30
2022-12-31T07:29:02.018Z,23.98
2022-12-31T07:31:44.250Z,21.67
2022-12-31T07:34:24.484Z,22.38
2022-12-31T07:37:03.367Z,19.65
2022-12-31T07:39:42.169Z,25.10
2022-12-31T07:42:17.587Z,20.75
2022-12-31T07:44:58.478Z,22.05
2022-12-31T07:47:29.794Z,19.98
2022-12-31T07:49:59.278Z,19.15
2022-12-31T07:52:28.444Z,19.00
2022-12-31T07:54:56.744Z,21.73
2022-12-31T07:57:32.391Z,20.70
2022-12-31T08:00:07.494Z,21.00
2022-12-31T08:03:11.738Z,19.35
2022-12-31T08:05:49.907Z,17.83
2022-12-31T08:08:30.203Z,21.17
2022-12-31T08:11:08.986Z,16.83
2022-12-31T08:13:37.397Z,24.00
2022-12-31T08:16:06.537Z,20.08
2022-12-31T08:18:36.876Z,21.98
2022-12-31T08:21:19.571Z,20.27
2022-12-31T08:23:58.757Z,19.83
2022-12-31T08:26:36.343Z,16.05
2022-12-31T08:29:18.440Z,18.70
2022-12-31T08:31:56.195Z,15.10
2022-12-31T08:34:35.930Z,18.95
2022-12-31T08:37:10.304Z,17.92
2022-12-31T08:39:51.705Z,18.52
2022-12-31T08:42:26.897Z,16.42
2022-12-31T08:45:03.835Z,19.50
2022-12-31T08:47:42.848Z,19.52
2022-12-31T08:50:19.290Z,14.63
2022-12-31T08:52:49.153Z,18.48
2022-12-31T08:55:19.520Z,16.27
2022-12-31T08:58:04.193Z,15.85
2022-12-31T09:00:39.995Z,16.50
2022-12-31T09:03:28.152Z,15.80
2022-12-31T09:06:09.076Z,16.65
2022-12-31T09:08:46.386Z,16.48
2022-12-31T09:11:23.416Z,14.57
2022-12-31T09:14:14.181Z,18.23
2022-12-31T09:16:52.263Z,16.35
2022-12-31T09:19:21.211Z,12.23
2022-12-31T09:21:51.843Z,13.65
2022-12-31T09:24:22.447Z,13.25
2022-12-31T09:27:01.862Z,18.45
2022-12-31T09:29:42.893Z,18.15
2022-12-31T09:32:22.675Z,14.75
2022-12-31T09:34:57.748Z,13.75
2022-12-31T09:37:45.202Z,13.77
2022-12-31T09:40:45.624Z,12.23
2022-12-31T09:43:48.256Z,14.32
2022-12-31T09:46:44.593Z,13.20
2022-12-31T09:50:01.519Z,13.00
2022-12-31T09:52:43.664Z,12.65
2022-12-31T09:55:31.619Z,11.75
2022-12-31T09:58:14.451Z,12.95
2022-12-31T10:00:48.345Z,11.35
2022-12-31T10:03:33.245Z,13.10
2022-12-31T10:06:19.005Z,13.27
2022-12-31T10:09:03.898Z,12.23
2022-12-31T10:11:49.041Z,14.63
2022-12-31T10:14:29.839Z,11.55
2022-12-31T10:17:09.441Z,12.90
2022-12-31T10:19:58.935Z,10.23
2022-12-31T10:22:46.086Z,13.93
2022-12-31T10:25:37.889Z,13.85
2022-12-31T10:28:16.143Z,9.90
2022-12-31T10:30:55.237Z,11.77
2022-12-31T10:33:41.565Z,11.95
2022-12-31T10:36:15.780Z,9.57
2022-12-31T10:38:55.794Z,10.40
2022-12-31T10:41:56.069Z,9.20
2022-12-31T10:44:54.779Z,10.38
2022-12-31T10:47:54.689Z,11.50
2022-12-31T10:51:00.844Z,9.40
2022-12-31T10:53:55.148Z,9.20
2022-12-31T10:56:48.060Z,6.25
2022-12-31T10:59:50.683Z,11.68
2022-12-31T11:02:55.676Z,10.35
2022-12-31T11:06:00.458Z,9.55
2022-12-31T11:08:52.908Z,9.93
2022-12-31T11:11:31.336Z,9.88
2022-12-31T11:14:27.347Z,8.52
2022-12-31T11:17:16.887Z,10.13
2022-12-31T11:19:56.598Z,7.85
2022-12-31T11:22:44.039Z,9.02
2022-12-31T11:25:30.369Z,9.10
2022-12-31T11:28:21.978Z,9.70
2022-12-31T11:31:05.275Z,14.40
2022-12-31T11:33:50.595Z,8.27
2022-12-31T11:36:29.731Z,9.50
2022-12-31T11:39:24.582Z,17.70
2022-12-31T11:42:04.596Z,10.27
2022-12-31T11:44:41.401Z,8.63
2022-12-31T11:47:26.886Z,9.07
2022-12-31T11:50:06.808Z,7.00
2022-12-31T11:52:51.714Z,9.93
2022-12-31T11:55:49.835Z,8.13
2022-12-31T11:58:28.737Z,6.90
2022-12-31T12:01:01.982Z,8.48
2022-12-31T12:03:32.846Z,6.65
2022-12-31T12:06:01.498Z,9.77
2022-12-31T12:08:33.808Z,8.70
2022-12-31T12:11:06.520Z,10.05
2022-12-31T12:13:35.595Z,10.15
2022-12-31T12:16:08.747Z,7.05
2022-12-31T12:18:45.241Z,11.23
2022-12-31T12:21:16.183Z,5.55
2022-12-31T12:23:56.613Z,5.55
2022-12-31T12:26:31.122Z,8.45
2022-12-31T12:29:01.942Z,6.78
2022-12-31T12:31:30.630Z,8.98
2022-12-31T12:34:00.742Z,7.00
2022-12-31T12:36:29.006Z,6.72
2022-12-31T12:39:04.621Z,7.75
2022-12-31T12:41:33.236Z,5.72
2022-12-31T12:44:07.423Z,7.80
2022-12-31T12:46:44.690Z,9.15
2022-12-31T12:49:23.917Z,10.95
2022-12-31T12:52:12.915Z,7.53
2022-12-31T12:54:57.281Z,10.07
2022-12-31T12:57:34.546Z,9.48
2022-12-31T13:00:21.325Z,8.00
2022-12-31T13:03:24.467Z,8.77
2022-12-31T13:06:08.353Z,8.07
2022-12-31T13:09:00.948Z,7.55
2022-12-31T13:11:39.817Z,7.32
2022-12-31T13:14:18.309Z,7.28
2022-12-31T13:16:54.886Z,8.65
2022-12-31T13:19:32.571Z,9.27
2022-12-31T13:22:06.055Z,9.25
2022-12-31T13:24:48.336Z,7.75
2022-12-31T13:27:24.897Z,10.68
2022-12-31T13:29:55.344Z,7.53
2022-12-31T13:32:41.611Z,9.32
2022-12-31T13:35:24.669Z,6.97
2022-12-31T13:38:04.983Z,9.35
2022-12-31T13:40:49.171Z,8.38
2022-12-31T13:43:23.529Z,8.07
2022-12-31T13:46:05.322Z,9.40
2022-12-31T13:48:38.604Z,7.85
2022-12-31T13:51:13.511Z,8.10
2022-12-31T13:53:52.951Z,6.90
2022-12-31T13:56:25.593Z,7.13
2022-12-31T13:58:59.426Z,10.52
2022-12-31T14:01:34.612Z,9.45
2022-12-31T14:04:09.186Z,9.48
2022-12-31T14:06:49.974Z,9.20
2022-12-31T14:09:24.902Z,9.40
2022-12-31T14:12:17.909Z,8.30
2022-12-31T14:14:54.891Z,7.53
2022-12-31T14:17:28.621Z,8.07
2022-12-31T14:20:12.360Z,7.40
2022-12-31T14:22:48.259Z,6.60
2022-12-31T14:25:23.707Z,9.35
2022-12-31T14:27:56.784Z,7.50
2022-12-31T14:30:31.009Z,9.60
2022-12-31T14:33:22.927Z,7.88
2022-12-31T14:36:08.390Z,7.43
2022-12-31T14:38:51.581Z,8.07
2022-12-31T14:41:38.079Z,8.68
2022-12-31T14:44:20.897Z,7.85
2022-12-31T14:47:04.108Z,9.68
2022-12-31T14:49:42.327Z,6.68
2022-12-31T14:52:24.068Z,8.48
2022-12-31T14:55:28.698Z,8.32
2022-12-31T14:58:26.929Z,9.35
2022-12-31T15:00:55.210Z,8.40
2022-12-31T15:03:27.117Z,8.93
2022-12-31T15:06:04.189Z,8.68
2022-12-31T15:08:48.442Z,7.35
2022-12-31T15:11:29.668Z,9.05
2022-12-31T15:14:18.612Z,9.20
2022-12-31T15:16:55.321Z,6.80
2022-12-31T15:19:51.996Z,9.48
2022-12-31T15:22:34.880Z,9.82
2022-12-31T15:25:03.726Z,10.45
2022-12-31T15:27:37.147Z,10.98
2022-12-31T15:30:09.235Z,7.90
2022-12-31T15:32:41.497Z,10.70
2022-12-31T15:35:26.886Z,7.05
2022-12-31T15:38:02.945Z,10.05
2022-12-31T15:40:33.638Z,8.27
2022-12-31T15:43:09.340Z,9.00
2022-12-31T15:45:40.773Z,8.38
2022-12-31T15:48:15.823Z,7.13
2022-12-31T15:50:45.799Z,8.63
2022-12-31T15:53:30.066Z,9.57
2022-12-31T15:56:00.627Z,9.73
2022-12-31T15:58:42.135Z,8.05
2022-12-31T16:01:16.811Z,8.82
2022-12-31T16:03:48.984Z,9.82
2022-12-31T16:06:18.077Z,9.80
2022-12-31T16:08:49.112Z,8.65
2022-12-31T16:11:18.279Z,9.65
2022-12-31T16:13:52.904Z,10.13
2022-12-31T16:16:26.306Z,9.15
2022-12-31T16:18:55.198Z,10.18
2022-12-31T16:21:30.164Z,8.80
2022-12-31T16:24:04.140Z,9.20
2022-12-31T16:26:44.307Z,12.48
2022-12-31T16:29:20.570Z,9.77
2022-12-31T16:31:51.888Z,7.38
2022-12-31T16:34:23.836Z,10.65
2022-12-31T16:37:00.279Z,9.18
2022-12-31T16:39:32.107Z,8.35
2022-12-31T16:42:19.928Z,9.40
2022-12-31T16:44:49.113Z,8.82
2022-12-31T16:47:23.227Z,10.05
2022-12-31T16:50:00.045Z,7.50
2022-12-31T16:52:33.040Z,12.63
2022-12-31T16:55:01.771Z,7.32
2022-12-31T16:57:32.557Z,8.07
2022-12-31T17:00:06.941Z,7.00
2022-12-31T17:02:40.173Z,7.85
2022-12-31T17:05:20.312Z,7.88
2022-12-31T17:07:48.663Z,10.93
2022-12-31T17:10:21.975Z,9.48
2022-12-31T17:15:45.162Z,9.50
2022-12-31T17:18:22.467Z,8.27
2022-12-31T17:20:52.445Z,7.82
2022-12-31T17:23:28.491Z,8.25
2022-12-31T17:26:01.700Z,9.68
2022-12-31T17:28:45.340Z,12.30
2022-12-31T17:31:35.072Z,8.55
2022-12-31T17:34:25.709Z,9.10
2022-12-31T17:37:17.870Z,9.13
2022-12-31T17:39:52.195Z,8.73
2022-12-31T17:42:31.051Z,11.18
2022-12-31T17:45:02.983Z,10.73
2022-12-31T17:47:41.980Z,8.38
2022-12-31T17:50:24.665Z,7.75
2022-12-31T17:52:57.108Z,8.88
2022-12-31T17:55:25.703Z,10.07
2022-12-31T17:57:56.781Z,13.85
2022-12-31T18:00:34.150Z,14.05
2022-12-31T18:03:02.937Z,7.90
2022-12-31T18:05:33.087Z,7.65
2022-12-31T18:08:04.426Z,9.15
2022-12-31T18:10:44.046Z,7.65
2022-12-31T18:13:24.804Z,7.28
2022-12-31T18:15:57.068Z,7.63
2022-12-31T18:18:27.468Z,10.07
2022-12-31T18:21:00.060Z,8.15
2022-12-31T18:23:30.536Z,8.68
2022-12-31T18:25:59.924Z,8.77
2022-12-31T18:28:28.278Z,10.35
2022-12-31T18:30:56.850Z,10.00
2022-12-31T18:33:27.095Z,8.27
2022-12-31T18:36:12.425Z,9.40
2022-12-31T18:38:41.736Z,9.93
2022-12-31T18:41:22.794Z,10.93
2022-12-31T18:43:51.906Z,9.25
2022-12-31T18:46:22.543Z,9.00
2022-12-31T18:48:51.061Z,9.60
2022-12-31T18:51:31.110Z,10.52
2022-12-31T18:54:02.850Z,10.63
2022-12-31T18:56:34.412Z,8.18
2022-12-31T18:59:05.588Z,8.23
2022-12-31T19:01:35.770Z,9.15
2022-12-31T19:04:11.936Z,7.82
2022-12-31T19:06:41.998Z,13.10
2022-12-31T19:09:30.646Z,10.23
2022-12-31T19:12:01.448Z,10.15
2022-12-31T19:14:30.077Z,7.55
2022-12-31T19:19:30.418Z,8.82
2022-12-31T19:22:01.224Z,8.73
2022-12-31T19:24:32.213Z,10.52
2022-12-31T19:27:02.658Z,9.65
2022-12-31T19:29:38.681Z,10.57
2022-12-31T19:32:09.944Z,8.50
2022-12-31T19:34:38.383Z,6.03
2022-12-31T19:37:08.079Z,12.65
2022-12-31T19:39:36.571Z,9.73
2022-12-31T19:42:08.049Z,7.68
2022-12-31T19:44:36.508Z,8.95
2022-12-31T19:47:04.779Z,13.10
2022-12-31T19:49:34.007Z,11.57
2022-12-31T19:52:02.529Z,10.32
2022-12-31T19:54:32.489Z,12.40
2022-12-31T19:57:03.601Z,9.63
2022-12-31T19:59:37.460Z,9.73
2022-12-31T20:02:11.552Z,10.95
2022-12-31T20:04:40.151Z,15.25
2022-12-31T20:07:10.374Z,10.82
2022-12-31T20:09:40.026Z,10.43
2022-12-31T20:12:19.609Z,10.55
2022-12-31T20:15:08.213Z,12.52
2022-12-31T20:17:37.176Z,11.27
2022-12-31T20:20:10.009Z,13.30
2022-12-31T20:22:41.434Z,11.93
2022-12-31T20:25:19.180Z,9.57
2022-12-31T20:27:53.381Z,9.38
2022-12-31T20:30:23.373Z,11.23
2022-12-31T20:32:52.771Z,12.70
2022-12-31T20:35:21.490Z,11.70
2022-12-31T20:37:49.906Z,10.13
2022-12-31T20:40:20.325Z,11.25
2022-12-31T20:42:48.620Z,12.32
2022-12-31T20:45:23.298Z,13.95
2022-12-31T20:48:18.802Z,11.30
2022-12-31T20:50:56.168Z,10.65
2022-12-31T20:53:24.653Z,11.90
2022-12-31T20:55:54.383Z,11.45
2022-12-31T20:58:25.893Z,15.15
2022-12-31T21:00:54.627Z,10.98
2022-12-31T21:06:18.409Z,8.93
2022-12-31T21:08:50.133Z,12.57
2022-12-31T21:11:42.243Z,15.38
2022-12-31T21:14:10.815Z,24.58
2022-12-31T21:16:39.214Z,25.67
2022-12-31T21:19:07.550Z,12.98
2022-12-31T21:21:38.720Z,14.60
2022-12-31T21:24:07.798Z,13.35
2022-12-31T21:26:39.991Z,11.60
2022-12-31T21:29:08.575Z,10.18
2022-12-31T21:31:36.907Z,13.73
2022-12-31T21:34:05.411Z,94.38
2022-12-31T21:36:33.831Z,23.25
2022-12-31T21:39:02.432Z,15.48
2022-12-31T21:41:50.146Z,17.73
2022-12-31T21:44:26.717Z,15.18
2022-12-31T21:47:40.922Z,11.07
2022-12-31T21:50:10.178Z,15.63
2022-12-31T21:52:38.622Z,16.88
2022-12-31T21:55:35.442Z,12.10
2022-12-31T22:01:14.702Z,14.50
2022-12-31T22:03:43.328Z,10.85
2022-12-31T22:06:16.313Z,11.32
2022-12-31T22:08:46.658Z,11.75
2022-12-31T22:11:19.174Z,11.38
2022-12-31T22:13:48.214Z,11.77
2022-12-31T22:16:20.372Z,11.32
2022-12-31T22:18:51.648Z,9.18
2022-12-31T22:21:24.113Z,12.00
2022-12-31T22:23:56.949Z,13.50
2022-12-31T22:26:29.797Z,14.80
2022-12-31T22:28:59.857Z,11.68
2022-12-31T22:31:31.356Z,11.07
2022-12-31T22:34:00.249Z,11.95
2022-12-31T22:36:28.763Z,9.48
2022-12-31T22:38:58.793Z,12.07
2022-12-31T22:41:29.235Z,9.15
2022-12-31T22:44:04.029Z,9.32
2022-12-31T22:46:35.599Z,18.02
2022-12-31T22:49:05.522Z,13.88
2022-12-31T22:51:56.708Z,16.08
2022-12-31T22:54:34.771Z,9.52
2022-12-31T22:57:03.287Z,13.43
2022-12-31T22:59:33.620Z,14.60
2022-12-31T23:02:04.649Z,11.27
2022-12-31T23:04:33.212Z,9.93
2022-12-31T23:07:01.537Z,10.02
2022-12-31T23:09:47.742Z,11.10
2022-12-31T23:12:16.123Z,12.73
2022-12-31T23:15:01.672Z,9.73
2022-12-31T23:17:50.996Z,10.85
2022-12-31T23:20:39.801Z,15.45
2022-12-31T23:23:15.316Z,15.40
2022-12-31T23:25:45.581Z,16.73
2022-12-31T23:28:16.287Z,20.88
2022-12-31T23:30:44.993Z,19.40
2022-12-31T23:33:18.968Z,19.10
2022-12-31T23:35:48.019Z,20.33
2022-12-31T23:38:19.111Z,18.95
2022-12-31T23:40:51.071Z,21.23
2022-12-31T23:43:22.277Z,21.13
2022-12-31T23:45:54.221Z,23.15
2022-12-31T23:48:23.968Z,19.77
2022-12-31T23:50:54.436Z,19.02
2022-12-31T23:53:23.541Z,16.92
2022-12-31T23:55:52.635Z,17.05
2022-12-31T23:58:22.404Z,15.63
